sensor_id;sensor_type;location;lat;lon;timestamp;temperature;humidity
29363;DHT22;16349;53.672;10.014;2022-10-23T00:01:51;12.60;99.90
29363;DHT22;16349;53.672;10.014;2022-10-23T00:04:20;12.50;99.90
29363;DHT22;16349;53.672;10.014;2022-10-23T00:06:50;12.50;99.90
29363;DHT22;16349;53.672;10.014;2022-10-23T00:09:22;12.50;99.90
29363;DHT22;16349;53.672;10.014;2022-10-23T00:11:49;12.40;99.90
29363;DHT22;16349;53.672;10.014;2022-10-23T00:14:18;12.40;99.90
29363;DHT22;16349;53.672;10.014;2022-10-23T00:16:46;12.40;99.90
29363;DHT22;16349;53.672;10.014;2022-10-23T00:19:13;12.30;99.90
29363;DHT22;16349;53.672;10.014;2022-10-23T00:21:40;12.30;99.90
29363;DHT22;16349;53.672;10.014;2022-10-23T00:24:08;12.20;99.90
29363;DHT22;16349;53.672;10.014;2022-10-23T00:26:35;12.20;99.90
29363;DHT22;16349;53.672;10.014;2022-10-23T00:29:06;12.20;99.90
29363;DHT22;16349;53.672;10.014;2022-10-23T00:31:33;12.10;99.90
29363;DHT22;16349;53.672;10.014;2022-10-23T00:34:00;12.10;99.90
29363;DHT22;16349;53.672;10.014;2022-10-23T00:36:26;12.10;99.90
29363;DHT22;16349;53.672;10.014;2022-10-23T00:38:54;12.20;99.90
29363;DHT22;16349;53.672;10.014;2022-10-23T00:41:24;12.20;99.90
29363;DHT22;16349;53.672;10.014;2022-10-23T00:43:56;12.10;99.90
29363;DHT22;16349;53.672;10.014;2022-10-23T00:46:22;12.10;99.90
29363;DHT22;16349;53.672;10.014;2022-10-23T00:48:49;11.90;99.90
29363;DHT22;16349;53.672;10.014;2022-10-23T00:51:16;11.90;99.90
29363;DHT22;16349;53.672;10.014;2022-10-23T00:53:43;11.90;99.90
29363;DHT22;16349;53.672;10.014;2022-10-23T00:56:10;11.90;99.90
29363;DHT22;16349;53.672;10.014;2022-10-23T00:58:38;11.80;99.90
29363;DHT22;16349;53.672;10.014;2022-10-23T01:01:14;11.80;99.90
29363;DHT22;16349;53.672;10.014;2022-10-23T01:03:42;11.80;99.90
29363;DHT22;16349;53.672;10.014;2022-10-23T01:06:13;11.90;99.90
29363;DHT22;16349;53.672;10.014;2022-10-23T01:08:46;11.90;99.90
29363;DHT22;16349;53.672;10.014;2022-10-23T01:11:20;12.00;99.90
29363;DHT22;16349;53.672;10.014;2022-10-23T01:13:56;12.00;99.90
29363;DHT22;16349;53.672;10.014;2022-10-23T01:16:32;12.00;99.90
29363;DHT22;16349;53.672;10.014;2022-10-23T01:19:06;12.00;99.90
29363;DHT22;16349;53.672;10.014;2022-10-23T01:21:45;11.90;99.90
29363;DHT22;16349;53.672;10.014;2022-10-23T01:24:26;11.90;99.90
29363;DHT22;16349;53.672;10.014;2022-10-23T01:27:14;11.80;99.90
29363;DHT22;16349;53.672;10.014;2022-10-23T01:29:42;11.70;99.90
29363;DHT22;16349;53.672;10.014;2022-10-23T01:32:14;11.70;99.90
29363;DHT22;16349;53.672;10.014;2022-10-23T01:34:46;11.60;99.90
29363;DHT22;16349;53.672;10.014;2022-10-23T01:37:16;11.60;99.90
29363;DHT22;16349;53.672;10.014;2022-10-23T01:39:49;11.60;99.90
29363;DHT22;16349;53.672;10.014;2022-10-23T01:42:21;11.60;99.90
29363;DHT22;16349;53.672;10.014;2022-10-23T01:44:53;11.50;99.90
29363;DHT22;16349;53.672;10.014;2022-10-23T01:47:26;11.60;99.90
29363;DHT22;16349;53.672;10.014;2022-10-23T01:50:02;11.60;99.90
29363;DHT22;16349;53.672;10.014;2022-10-23T01:52:30;11.60;99.90
29363;DHT22;16349;53.672;10.014;2022-10-23T01:54:59;11.60;99.90
29363;DHT22;16349;53.672;10.014;2022-10-23T01:57:29;11.60;99.90
29363;DHT22;16349;53.672;10.014;2022-10-23T02:00:01;11.60;99.90
29363;DHT22;16349;53.672;10.014;2022-10-23T02:02:31;11.60;99.90
29363;DHT22;16349;53.672;10.014;2022-10-23T02:05:02;11.60;99.90
29363;DHT22;16349;53.672;10.014;2022-10-23T02:07:31;11.60;99.90
29363;DHT22;16349;53.672;10.014;2022-10-23T02:09:59;11.60;99.90
29363;DHT22;16349;53.672;10.014;2022-10-23T02:12:31;11.60;99.90
29363;DHT22;16349;53.672;10.014;2022-10-23T02:15:07;11.50;99.90
29363;DHT22;16349;53.672;10.014;2022-10-23T02:17:44;11.50;99.90
29363;DHT22;16349;53.672;10.014;2022-10-23T02:20:19;11.50;99.90
29363;DHT22;16349;53.672;10.014;2022-10-23T02:22:53;11.40;99.90
29363;DHT22;16349;53.672;10.014;2022-10-23T02:25:27;11.40;99.90
29363;DHT22;16349;53.672;10.014;2022-10-23T02:28:00;11.40;99.90
29363;DHT22;16349;53.672;10.014;2022-10-23T02:30:37;11.40;99.90
29363;DHT22;16349;53.672;10.014;2022-10-23T02:33:11;11.40;99.90
29363;DHT22;16349;53.672;10.014;2022-10-23T02:35:39;11.40;99.90
29363;DHT22;16349;53.672;10.014;2022-10-23T02:38:29;11.40;99.90
29363;DHT22;16349;53.672;10.014;2022-10-23T02:41:04;11.30;99.90
29363;DHT22;16349;53.672;10.014;2022-10-23T02:43:41;11.20;99.90
29363;DHT22;16349;53.672;10.014;2022-10-23T02:46:17;11.20;99.90
29363;DHT22;16349;53.672;10.014;2022-10-23T02:48:51;11.10;99.90
29363;DHT22;16349;53.672;10.014;2022-10-23T02:51:24;11.20;99.90
29363;DHT22;16349;53.672;10.014;2022-10-23T02:54:00;11.10;99.90
29363;DHT22;16349;53.672;10.014;2022-10-23T02:56:38;11.10;99.90
29363;DHT22;16349;53.672;10.014;2022-10-23T02:59:12;11.00;99.90
29363;DHT22;16349;53.672;10.014;2022-10-23T03:01:47;11.00;99.90
29363;DHT22;16349;53.672;10.014;2022-10-23T03:04:16;10.90;99.90
29363;DHT22;16349;53.672;10.014;2022-10-23T03:06:46;10.90;99.90
29363;DHT22;16349;53.672;10.014;2022-10-23T03:09:16;10.90;99.90
29363;DHT22;16349;53.672;10.014;2022-10-23T03:11:43;10.80;99.90
29363;DHT22;16349;53.672;10.014;2022-10-23T03:14:12;10.90;99.90
29363;DHT22;16349;53.672;10.014;2022-10-23T03:16:39;10.90;99.90
29363;DHT22;16349;53.672;10.014;2022-10-23T03:19:08;10.90;99.90
29363;DHT22;16349;53.672;10.014;2022-10-23T03:21:35;10.90;99.90
29363;DHT22;16349;53.672;10.014;2022-10-23T03:24:06;10.90;99.90
29363;DHT22;16349;53.672;10.014;2022-10-23T03:26:39;10.80;99.90
29363;DHT22;16349;53.672;10.014;2022-10-23T03:29:06;10.80;99.90
29363;DHT22;16349;53.672;10.014;2022-10-23T03:31:40;10.70;99.90
29363;DHT22;16349;53.672;10.014;2022-10-23T03:34:07;10.70;99.90
29363;DHT22;16349;53.672;10.014;2022-10-23T03:36:38;10.70;99.90
29363;DHT22;16349;53.672;10.014;2022-10-23T03:39:06;10.60;99.90
29363;DHT22;16349;53.672;10.014;2022-10-23T03:41:33;10.50;99.90
29363;DHT22;16349;53.672;10.014;2022-10-23T03:44:00;10.50;99.90
29363;DHT22;16349;53.672;10.014;2022-10-23T03:46:27;10.40;99.90
29363;DHT22;16349;53.672;10.014;2022-10-23T03:48:55;10.50;99.90
29363;DHT22;16349;53.672;10.014;2022-10-23T03:51:25;10.50;99.90
29363;DHT22;16349;53.672;10.014;2022-10-23T03:53:51;10.50;99.90
29363;DHT22;16349;53.672;10.014;2022-10-23T03:56:19;10.50;99.90
29363;DHT22;16349;53.672;10.014;2022-10-23T03:58:47;10.50;99.90
29363;DHT22;16349;53.672;10.014;2022-10-23T04:01:13;10.50;99.90
29363;DHT22;16349;53.672;10.014;2022-10-23T04:03:40;10.50;99.90
29363;DHT22;16349;53.672;10.014;2022-10-23T04:06:08;10.50;99.90
29363;DHT22;16349;53.672;10.014;2022-10-23T04:08:36;10.50;99.90
29363;DHT22;16349;53.672;10.014;2022-10-23T04:11:10;10.40;99.90
29363;DHT22;16349;53.672;10.014;2022-10-23T04:13:44;10.40;99.90
29363;DHT22;16349;53.672;10.014;2022-10-23T04:16:11;10.50;99.90
29363;DHT22;16349;53.672;10.014;2022-10-23T04:18:39;10.50;99.90
29363;DHT22;16349;53.672;10.014;2022-10-23T04:21:10;10.50;99.90
29363;DHT22;16349;53.672;10.014;2022-10-23T04:23:38;10.50;99.90
29363;DHT22;16349;53.672;10.014;2022-10-23T04:26:10;10.50;99.90
29363;DHT22;16349;53.672;10.014;2022-10-23T04:28:37;10.50;99.90
29363;DHT22;16349;53.672;10.014;2022-10-23T04:31:04;10.50;99.90
29363;DHT22;16349;53.672;10.014;2022-10-23T04:33:32;10.50;99.90
29363;DHT22;16349;53.672;10.014;2022-10-23T04:35:59;10.40;99.90
29363;DHT22;16349;53.672;10.014;2022-10-23T04:38:27;10.40;99.90
29363;DHT22;16349;53.672;10.014;2022-10-23T04:40:54;10.40;99.90
29363;DHT22;16349;53.672;10.014;2022-10-23T04:43:21;10.40;99.90
29363;DHT22;16349;53.672;10.014;2022-10-23T04:45:48;10.50;99.90
29363;DHT22;16349;53.672;10.014;2022-10-23T04:48:16;10.40;99.90
29363;DHT22;16349;53.672;10.014;2022-10-23T04:51:10;10.40;99.90
29363;DHT22;16349;53.672;10.014;2022-10-23T04:53:57;10.40;99.90
29363;DHT22;16349;53.672;10.014;2022-10-23T04:56:40;10.40;99.90
29363;DHT22;16349;53.672;10.014;2022-10-23T04:59:12;10.40;99.90
29363;DHT22;16349;53.672;10.014;2022-10-23T05:01:40;10.40;99.90
29363;DHT22;16349;53.672;10.014;2022-10-23T05:04:08;10.40;99.90
29363;DHT22;16349;53.672;10.014;2022-10-23T05:07:10;10.40;99.90
29363;DHT22;16349;53.672;10.014;2022-10-23T05:10:05;10.40;99.90
29363;DHT22;16349;53.672;10.014;2022-10-23T05:12:47;10.40;99.90
29363;DHT22;16349;53.672;10.014;2022-10-23T05:15:14;10.30;99.90
29363;DHT22;16349;53.672;10.014;2022-10-23T05:17:43;10.30;99.90
29363;DHT22;16349;53.672;10.014;2022-10-23T05:20:15;10.30;99.90
29363;DHT22;16349;53.672;10.014;2022-10-23T05:22:45;10.30;99.90
29363;DHT22;16349;53.672;10.014;2022-10-23T05:25:14;10.30;99.90
29363;DHT22;16349;53.672;10.014;2022-10-23T05:27:46;10.30;99.90
29363;DHT22;16349;53.672;10.014;2022-10-23T05:30:15;10.30;99.90
29363;DHT22;16349;53.672;10.014;2022-10-23T05:32:43;10.20;99.90
29363;DHT22;16349;53.672;10.014;2022-10-23T05:35:12;10.20;99.90
29363;DHT22;16349;53.672;10.014;2022-10-23T05:37:46;10.20;99.90
29363;DHT22;16349;53.672;10.014;2022-10-23T05:40:20;10.20;99.90
29363;DHT22;16349;53.672;10.014;2022-10-23T05:42:49;10.20;99.90
29363;DHT22;16349;53.672;10.014;2022-10-23T05:45:20;10.20;99.90
29363;DHT22;16349;53.672;10.014;2022-10-23T05:48:18;10.20;99.90
29363;DHT22;16349;53.672;10.014;2022-10-23T05:51:07;10.10;99.90
29363;DHT22;16349;53.672;10.014;2022-10-23T05:53:42;10.10;99.90
29363;DHT22;16349;53.672;10.014;2022-10-23T05:56:29;10.10;99.90
29363;DHT22;16349;53.672;10.014;2022-10-23T05:59:18;10.10;99.90
29363;DHT22;16349;53.672;10.014;2022-10-23T06:01:51;10.10;99.90
29363;DHT22;16349;53.672;10.014;2022-10-23T06:04:28;10.10;99.90
29363;DHT22;16349;53.672;10.014;2022-10-23T06:07:14;10.00;99.90
29363;DHT22;16349;53.672;10.014;2022-10-23T06:09:43;10.00;99.90
29363;DHT22;16349;53.672;10.014;2022-10-23T06:12:13;10.00;99.90
29363;DHT22;16349;53.672;10.014;2022-10-23T06:14:43;10.00;99.90
29363;DHT22;16349;53.672;10.014;2022-10-23T06:17:11;10.00;99.90
29363;DHT22;16349;53.672;10.014;2022-10-23T06:19:43;10.00;99.90
29363;DHT22;16349;53.672;10.014;2022-10-23T06:22:09;10.00;99.90
29363;DHT22;16349;53.672;10.014;2022-10-23T06:24:46;10.00;99.90
29363;DHT22;16349;53.672;10.014;2022-10-23T06:27:20;10.00;99.90
29363;DHT22;16349;53.672;10.014;2022-10-23T06:29:46;10.00;99.90
29363;DHT22;16349;53.672;10.014;2022-10-23T06:32:13;9.90;99.90
29363;DHT22;16349;53.672;10.014;2022-10-23T06:34:45;9.90;99.90
29363;DHT22;16349;53.672;10.014;2022-10-23T06:37:12;9.90;99.90
29363;DHT22;16349;53.672;10.014;2022-10-23T06:39:43;9.90;99.90
29363;DHT22;16349;53.672;10.014;2022-10-23T06:42:22;9.90;99.90
29363;DHT22;16349;53.672;10.014;2022-10-23T06:44:55;9.90;99.90
29363;DHT22;16349;53.672;10.014;2022-10-23T06:47:41;9.90;99.90
29363;DHT22;16349;53.672;10.014;2022-10-23T06:50:40;10.00;99.90
29363;DHT22;16349;53.672;10.014;2022-10-23T06:53:13;10.00;99.90
29363;DHT22;16349;53.672;10.014;2022-10-23T06:55:46;10.00;99.90
29363;DHT22;16349;53.672;10.014;2022-10-23T06:58:14;10.10;99.90
29363;DHT22;16349;53.672;10.014;2022-10-23T07:01:05;10.10;99.90
29363;DHT22;16349;53.672;10.014;2022-10-23T07:03:33;10.10;99.90
29363;DHT22;16349;53.672;10.014;2022-10-23T07:06:04;10.20;99.90
29363;DHT22;16349;53.672;10.014;2022-10-23T07:08:31;10.30;99.90
29363;DHT22;16349;53.672;10.014;2022-10-23T07:11:02;10.30;99.90
29363;DHT22;16349;53.672;10.014;2022-10-23T07:13:31;10.40;99.90
29363;DHT22;16349;53.672;10.014;2022-10-23T07:16:14;10.40;99.90
29363;DHT22;16349;53.672;10.014;2022-10-23T07:18:41;10.50;99.90
29363;DHT22;16349;53.672;10.014;2022-10-23T07:21:29;10.60;99.90
29363;DHT22;16349;53.672;10.014;2022-10-23T07:24:13;10.60;99.90
29363;DHT22;16349;53.672;10.014;2022-10-23T07:26:40;10.70;99.90
29363;DHT22;16349;53.672;10.014;2022-10-23T07:29:10;10.70;99.90
29363;DHT22;16349;53.672;10.014;2022-10-23T07:31:37;10.80;99.90
29363;DHT22;16349;53.672;10.014;2022-10-23T07:34:35;10.80;99.90
29363;DHT22;16349;53.672;10.014;2022-10-23T07:37:21;10.90;99.90
29363;DHT22;16349;53.672;10.014;2022-10-23T07:39:47;11.00;99.90
29363;DHT22;16349;53.672;10.014;2022-10-23T07:42:14;11.10;99.90
29363;DHT22;16349;53.672;10.014;2022-10-23T07:44:42;11.20;99.90
29363;DHT22;16349;53.672;10.014;2022-10-23T07:47:09;11.20;99.90
29363;DHT22;16349;53.672;10.014;2022-10-23T07:49:39;11.30;99.90
29363;DHT22;16349;53.672;10.014;2022-10-23T07:52:06;11.40;99.90
29363;DHT22;16349;53.672;10.014;2022-10-23T07:54:53;11.40;99.90
29363;DHT22;16349;53.672;10.014;2022-10-23T07:57:20;11.50;99.90
29363;DHT22;16349;53.672;10.014;2022-10-23T07:59:55;11.60;99.90
29363;DHT22;16349;53.672;10.014;2022-10-23T08:02:23;11.60;99.90
29363;DHT22;16349;53.672;10.014;2022-10-23T08:04:51;11.80;99.90
29363;DHT22;16349;53.672;10.014;2022-10-23T08:07:30;11.80;99.90
29363;DHT22;16349;53.672;10.014;2022-10-23T08:09:56;11.90;99.90
29363;DHT22;16349;53.672;10.014;2022-10-23T08:12:24;12.00;99.90
29363;DHT22;16349;53.672;10.014;2022-10-23T08:14:54;12.00;99.90
29363;DHT22;16349;53.672;10.014;2022-10-23T08:17:22;12.10;99.90
29363;DHT22;16349;53.672;10.014;2022-10-23T08:20:01;12.20;99.90
29363;DHT22;16349;53.672;10.014;2022-10-23T08:22:33;12.20;99.90
29363;DHT22;16349;53.672;10.014;2022-10-23T08:25:02;12.30;99.90
29363;DHT22;16349;53.672;10.014;2022-10-23T08:27:29;12.30;99.90
29363;DHT22;16349;53.672;10.014;2022-10-23T08:29:57;12.40;99.90
29363;DHT22;16349;53.672;10.014;2022-10-23T08:32:24;12.50;99.90
29363;DHT22;16349;53.672;10.014;2022-10-23T08:34:56;12.50;99.90
29363;DHT22;16349;53.672;10.014;2022-10-23T08:37:24;12.60;99.90
29363;DHT22;16349;53.672;10.014;2022-10-23T08:39:51;12.70;99.90
29363;DHT22;16349;53.672;10.014;2022-10-23T08:42:28;12.70;99.90
29363;DHT22;16349;53.672;10.014;2022-10-23T08:45:06;12.80;99.90
29363;DHT22;16349;53.672;10.014;2022-10-23T08:47:39;12.90;99.90
29363;DHT22;16349;53.672;10.014;2022-10-23T08:50:28;12.90;99.90
29363;DHT22;16349;53.672;10.014;2022-10-23T08:53:02;13.00;99.90
29363;DHT22;16349;53.672;10.014;2022-10-23T08:55:32;13.10;99.90
29363;DHT22;16349;53.672;10.014;2022-10-23T08:58:05;13.20;99.90
29363;DHT22;16349;53.672;10.014;2022-10-23T09:00:33;13.30;99.90
29363;DHT22;16349;53.672;10.014;2022-10-23T09:03:01;13.40;99.90
29363;DHT22;16349;53.672;10.014;2022-10-23T09:05:33;13.40;99.90
29363;DHT22;16349;53.672;10.014;2022-10-23T09:08:20;13.40;99.90
29363;DHT22;16349;53.672;10.014;2022-10-23T09:11:03;13.50;99.90
29363;DHT22;16349;53.672;10.014;2022-10-23T09:13:44;13.50;99.90
29363;DHT22;16349;53.672;10.014;2022-10-23T09:16:20;13.60;99.90
29363;DHT22;16349;53.672;10.014;2022-10-23T09:18:48;13.60;99.90
29363;DHT22;16349;53.672;10.014;2022-10-23T09:21:15;13.60;99.90
29363;DHT22;16349;53.672;10.014;2022-10-23T09:23:42;13.70;99.90
29363;DHT22;16349;53.672;10.014;2022-10-23T09:26:13;13.80;99.90
29363;DHT22;16349;53.672;10.014;2022-10-23T09:28:45;13.80;99.90
29363;DHT22;16349;53.672;10.014;2022-10-23T09:31:13;13.90;99.90
29363;DHT22;16349;53.672;10.014;2022-10-23T09:33:53;13.90;99.90
29363;DHT22;16349;53.672;10.014;2022-10-23T09:36:21;14.00;99.90
29363;DHT22;16349;53.672;10.014;2022-10-23T09:38:50;14.10;99.90
29363;DHT22;16349;53.672;10.014;2022-10-23T09:41:19;14.20;99.90
29363;DHT22;16349;53.672;10.014;2022-10-23T09:43:59;14.20;99.90
29363;DHT22;16349;53.672;10.014;2022-10-23T09:46:36;14.30;99.90
29363;DHT22;16349;53.672;10.014;2022-10-23T09:49:04;14.40;99.90
29363;DHT22;16349;53.672;10.014;2022-10-23T09:51:32;14.50;99.90
29363;DHT22;16349;53.672;10.014;2022-10-23T09:53:59;14.50;99.90
29363;DHT22;16349;53.672;10.014;2022-10-23T09:56:28;14.60;99.90
29363;DHT22;16349;53.672;10.014;2022-10-23T09:58:57;14.60;99.90
29363;DHT22;16349;53.672;10.014;2022-10-23T10:01:26;14.70;99.90
29363;DHT22;16349;53.672;10.014;2022-10-23T10:03:58;14.70;99.90
29363;DHT22;16349;53.672;10.014;2022-10-23T10:06:28;14.70;99.90
29363;DHT22;16349;53.672;10.014;2022-10-23T10:08:57;14.80;99.90
29363;DHT22;16349;53.672;10.014;2022-10-23T10:11:29;14.80;99.90
29363;DHT22;16349;53.672;10.014;2022-10-23T10:14:34;14.90;99.90
29363;DHT22;16349;53.672;10.014;2022-10-23T10:17:13;15.00;99.90
29363;DHT22;16349;53.672;10.014;2022-10-23T10:20:02;15.10;99.90
29363;DHT22;16349;53.672;10.014;2022-10-23T10:22:36;15.10;99.90
29363;DHT22;16349;53.672;10.014;2022-10-23T10:25:09;15.20;99.90
29363;DHT22;16349;53.672;10.014;2022-10-23T10:27:44;15.20;99.90
29363;DHT22;16349;53.672;10.014;2022-10-23T10:30:17;15.30;99.90
29363;DHT22;16349;53.672;10.014;2022-10-23T10:32:49;15.30;99.90
29363;DHT22;16349;53.672;10.014;2022-10-23T10:35:22;15.40;99.90
29363;DHT22;16349;53.672;10.014;2022-10-23T10:41:10;15.50;99.90
29363;DHT22;16349;53.672;10.014;2022-10-23T10:43:48;15.50;99.90
29363;DHT22;16349;53.672;10.014;2022-10-23T10:46:27;15.60;99.90
29363;DHT22;16349;53.672;10.014;2022-10-23T10:48:59;15.60;99.90
29363;DHT22;16349;53.672;10.014;2022-10-23T10:51:40;15.60;99.90
29363;DHT22;16349;53.672;10.014;2022-10-23T10:54:23;15.70;99.90
29363;DHT22;16349;53.672;10.014;2022-10-23T10:56:59;15.80;99.90
29363;DHT22;16349;53.672;10.014;2022-10-23T10:59:30;15.80;99.90
29363;DHT22;16349;53.672;10.014;2022-10-23T11:02:14;15.90;99.90
29363;DHT22;16349;53.672;10.014;2022-10-23T11:04:49;15.90;99.90
29363;DHT22;16349;53.672;10.014;2022-10-23T11:07:21;15.90;99.90
29363;DHT22;16349;53.672;10.014;2022-10-23T11:09:49;16.00;99.90
29363;DHT22;16349;53.672;10.014;2022-10-23T11:12:22;16.00;99.90
29363;DHT22;16349;53.672;10.014;2022-10-23T11:14:50;16.00;99.90
29363;DHT22;16349;53.672;10.014;2022-10-23T11:17:22;16.10;99.90
29363;DHT22;16349;53.672;10.014;2022-10-23T11:19:57;16.10;99.90
29363;DHT22;16349;53.672;10.014;2022-10-23T11:22:31;16.10;99.90
29363;DHT22;16349;53.672;10.014;2022-10-23T11:28:18;16.10;99.90
29363;DHT22;16349;53.672;10.014;2022-10-23T11:31:02;16.10;99.90
29363;DHT22;16349;53.672;10.014;2022-10-23T11:34:03;16.20;99.90
29363;DHT22;16349;53.672;10.014;2022-10-23T11:36:42;16.20;99.90
29363;DHT22;16349;53.672;10.014;2022-10-23T11:39:22;16.20;99.90
29363;DHT22;16349;53.672;10.014;2022-10-23T11:41:54;16.30;99.90
29363;DHT22;16349;53.672;10.014;2022-10-23T11:44:25;16.30;99.90
29363;DHT22;16349;53.672;10.014;2022-10-23T11:47:00;16.40;99.90
29363;DHT22;16349;53.672;10.014;2022-10-23T11:49:27;16.40;99.90
29363;DHT22;16349;53.672;10.014;2022-10-23T11:52:00;16.50;99.90
29363;DHT22;16349;53.672;10.014;2022-10-23T11:54:28;16.60;99.90
29363;DHT22;16349;53.672;10.014;2022-10-23T11:57:09;16.70;99.90
29363;DHT22;16349;53.672;10.014;2022-10-23T11:59:50;16.80;99.90
29363;DHT22;16349;53.672;10.014;2022-10-23T12:02:26;17.00;99.90
29363;DHT22;16349;53.672;10.014;2022-10-23T12:05:27;17.00;99.90
29363;DHT22;16349;53.672;10.014;2022-10-23T12:07:59;17.10;99.90
29363;DHT22;16349;53.672;10.014;2022-10-23T12:10:30;17.20;99.90
29363;DHT22;16349;53.672;10.014;2022-10-23T12:13:00;17.20;99.90
29363;DHT22;16349;53.672;10.014;2022-10-23T12:15:30;17.20;99.90
29363;DHT22;16349;53.672;10.014;2022-10-23T12:18:07;17.30;99.90
29363;DHT22;16349;53.672;10.014;2022-10-23T12:20:45;17.30;99.90
29363;DHT22;16349;53.672;10.014;2022-10-23T12:26:39;17.50;99.90
29363;DHT22;16349;53.672;10.014;2022-10-23T12:29:17;17.50;99.90
29363;DHT22;16349;53.672;10.014;2022-10-23T12:31:54;17.60;99.90
29363;DHT22;16349;53.672;10.014;2022-10-23T12:34:31;17.60;99.90
29363;DHT22;16349;53.672;10.014;2022-10-23T12:37:27;17.70;99.90
29363;DHT22;16349;53.672;10.014;2022-10-23T12:39:59;17.70;99.90
29363;DHT22;16349;53.672;10.014;2022-10-23T12:42:27;17.70;99.90
29363;DHT22;16349;53.672;10.014;2022-10-23T12:44:58;17.70;99.90
29363;DHT22;16349;53.672;10.014;2022-10-23T12:47:27;17.70;99.90
29363;DHT22;16349;53.672;10.014;2022-10-23T12:49:54;17.70;99.90
29363;DHT22;16349;53.672;10.014;2022-10-23T12:52:22;17.70;99.90
29363;DHT22;16349;53.672;10.014;2022-10-23T12:54:50;17.70;99.90
29363;DHT22;16349;53.672;10.014;2022-10-23T12:57:20;17.70;99.90
29363;DHT22;16349;53.672;10.014;2022-10-23T12:59:47;17.60;99.90
29363;DHT22;16349;53.672;10.014;2022-10-23T13:02:22;17.60;99.90
29363;DHT22;16349;53.672;10.014;2022-10-23T13:04:52;17.60;99.90
29363;DHT22;16349;53.672;10.014;2022-10-23T13:07:22;17.60;99.90
29363;DHT22;16349;53.672;10.014;2022-10-23T13:09:49;17.50;99.90
29363;DHT22;16349;53.672;10.014;2022-10-23T13:12:26;17.50;99.90
29363;DHT22;16349;53.672;10.014;2022-10-23T13:14:57;17.50;99.90
29363;DHT22;16349;53.672;10.014;2022-10-23T13:17:34;17.40;99.90
29363;DHT22;16349;53.672;10.014;2022-10-23T13:20:15;17.30;99.90
29363;DHT22;16349;53.672;10.014;2022-10-23T13:22:46;17.30;99.90
29363;DHT22;16349;53.672;10.014;2022-10-23T13:25:21;17.30;99.90
29363;DHT22;16349;53.672;10.014;2022-10-23T13:27:49;17.20;99.90
29363;DHT22;16349;53.672;10.014;2022-10-23T13:30:27;17.20;99.90
29363;DHT22;16349;53.672;10.014;2022-10-23T13:32:55;17.20;99.90
29363;DHT22;16349;53.672;10.014;2022-10-23T13:35:23;17.10;99.90
29363;DHT22;16349;53.672;10.014;2022-10-23T13:37:50;17.10;99.90
29363;DHT22;16349;53.672;10.014;2022-10-23T13:40:22;17.10;99.90
29363;DHT22;16349;53.672;10.014;2022-10-23T13:42:51;17.10;99.90
29363;DHT22;16349;53.672;10.014;2022-10-23T13:45:21;17.10;99.90
29363;DHT22;16349;53.672;10.014;2022-10-23T13:47:48;17.00;99.90
29363;DHT22;16349;53.672;10.014;2022-10-23T13:50:15;17.00;99.90
29363;DHT22;16349;53.672;10.014;2022-10-23T13:52:44;17.00;99.90
29363;DHT22;16349;53.672;10.014;2022-10-23T13:55:18;16.90;99.90
29363;DHT22;16349;53.672;10.014;2022-10-23T13:57:46;16.90;99.90
29363;DHT22;16349;53.672;10.014;2022-10-23T14:00:14;16.90;99.90
29363;DHT22;16349;53.672;10.014;2022-10-23T14:02:42;16.90;99.90
29363;DHT22;16349;53.672;10.014;2022-10-23T14:05:09;16.90;99.90
29363;DHT22;16349;53.672;10.014;2022-10-23T14:07:35;16.90;99.90
29363;DHT22;16349;53.672;10.014;2022-10-23T14:10:04;16.90;99.90
29363;DHT22;16349;53.672;10.014;2022-10-23T14:12:38;16.90;99.90
29363;DHT22;16349;53.672;10.014;2022-10-23T14:15:06;16.90;99.90
29363;DHT22;16349;53.672;10.014;2022-10-23T14:17:33;16.90;99.90
29363;DHT22;16349;53.672;10.014;2022-10-23T14:20:00;16.80;99.90
29363;DHT22;16349;53.672;10.014;2022-10-23T14:22:27;16.80;99.90
29363;DHT22;16349;53.672;10.014;2022-10-23T14:24:53;16.80;99.90
29363;DHT22;16349;53.672;10.014;2022-10-23T14:27:21;16.70;99.90
29363;DHT22;16349;53.672;10.014;2022-10-23T14:29:48;16.70;99.90
29363;DHT22;16349;53.672;10.014;2022-10-23T14:32:16;16.70;99.90
29363;DHT22;16349;53.672;10.014;2022-10-23T14:34:43;16.70;99.90
29363;DHT22;16349;53.672;10.014;2022-10-23T14:37:15;16.60;99.90
29363;DHT22;16349;53.672;10.014;2022-10-23T14:39:42;16.60;99.90
29363;DHT22;16349;53.672;10.014;2022-10-23T14:42:09;16.60;99.90
29363;DHT22;16349;53.672;10.014;2022-10-23T14:44:37;16.60;99.90
29363;DHT22;16349;53.672;10.014;2022-10-23T14:47:03;16.50;99.90
29363;DHT22;16349;53.672;10.014;2022-10-23T14:49:31;16.50;99.90
29363;DHT22;16349;53.672;10.014;2022-10-23T14:52:00;16.50;99.90
29363;DHT22;16349;53.672;10.014;2022-10-23T14:54:26;16.50;99.90
29363;DHT22;16349;53.672;10.014;2022-10-23T14:56:54;16.50;99.90
29363;DHT22;16349;53.672;10.014;2022-10-23T14:59:20;16.40;99.90
29363;DHT22;16349;53.672;10.014;2022-10-23T15:01:48;16.40;99.90
29363;DHT22;16349;53.672;10.014;2022-10-23T15:04:15;16.30;99.90
29363;DHT22;16349;53.672;10.014;2022-10-23T15:06:42;16.30;99.90
29363;DHT22;16349;53.672;10.014;2022-10-23T15:09:09;16.30;99.90
29363;DHT22;16349;53.672;10.014;2022-10-23T15:11:36;16.20;99.90
29363;DHT22;16349;53.672;10.014;2022-10-23T15:14:02;16.20;99.90
29363;DHT22;16349;53.672;10.014;2022-10-23T15:16:29;16.20;99.90
29363;DHT22;16349;53.672;10.014;2022-10-23T15:18:57;16.20;99.90
29363;DHT22;16349;53.672;10.014;2022-10-23T15:21:24;16.10;99.90
29363;DHT22;16349;53.672;10.014;2022-10-23T15:23:50;16.10;99.90
29363;DHT22;16349;53.672;10.014;2022-10-23T15:26:19;16.00;99.90
29363;DHT22;16349;53.672;10.014;2022-10-23T15:28:52;16.00;99.90
29363;DHT22;16349;53.672;10.014;2022-10-23T15:31:47;16.00;99.90
29363;DHT22;16349;53.672;10.014;2022-10-23T15:34:18;15.90;99.90
29363;DHT22;16349;53.672;10.014;2022-10-23T15:36:46;15.90;99.90
29363;DHT22;16349;53.672;10.014;2022-10-23T15:39:14;15.80;99.90
29363;DHT22;16349;53.672;10.014;2022-10-23T15:41:42;15.80;99.90
29363;DHT22;16349;53.672;10.014;2022-10-23T15:44:12;15.70;99.90
29363;DHT22;16349;53.672;10.014;2022-10-23T15:46:39;15.70;99.90
29363;DHT22;16349;53.672;10.014;2022-10-23T15:49:07;15.60;99.90
29363;DHT22;16349;53.672;10.014;2022-10-23T15:51:35;15.60;99.90
29363;DHT22;16349;53.672;10.014;2022-10-23T15:54:02;15.60;99.90
29363;DHT22;16349;53.672;10.014;2022-10-23T15:56:29;15.60;99.90
29363;DHT22;16349;53.672;10.014;2022-10-23T15:58:56;15.50;99.90